Time;durP1;ratioP1;P1;durP2;ratioP2;P2;SDS_P1;SDS_P2;PMS_P1;PMS_P2;Temp;Humidity;BMP_temperature;BMP_pressure;BME280_temperature;BME280_humidity;BME280_pressure;Samples;Min_cycle;Max_cycle;Signal;HPM_P1;HPM_P2
2023/01/23 00:00:28;;;;;;;21.20;10.43;;;;;;;1.14;100.00;102736.44;4944701;28;20062;-79
2023/01/23 00:06:31;;;;;;;17.23;10.45;;;;;;;1.16;100.00;102745.16;4915893;28;20428;-78
2023/01/23 00:09:00;;;;;;;20.20;9.65;;;;;;;1.19;100.00;102744.44;4992593;28;20448;-79
2023/01/23 00:11:39;;;;;;;22.30;12.63;;;;;;;1.19;100.00;102740.22;4990400;28;20050;-78
2023/01/23 00:17:08;;;;;;;24.08;11.05;;;;;;;1.23;100.00;102741.31;4971535;28;20045;-78
2023/01/23 00:19:42;;;;;;;21.70;11.00;;;;;;;1.24;100.00;102745.63;4978935;28;20060;-78
2023/01/23 00:22:21;;;;;;;24.27;11.73;;;;;;;1.23;100.00;102743.88;4651524;23;10001430;-80
2023/01/23 00:25:21;;;;;;;21.85;10.65;;;;;;;1.24;100.00;102740.47;4982331;28;20038;-81
2023/01/23 00:27:51;;;;;;;18.33;9.13;;;;;;;1.24;100.00;102740.47;4981616;28;20488;-81
2023/01/23 00:30:21;;;;;;;18.67;10.18;;;;;;;1.23;100.00;102743.88;4985806;28;20057;-79
2023/01/23 00:32:48;;;;;;;22.58;11.45;;;;;;;1.21;100.00;102746.34;4966443;28;20042;-78
2023/01/23 00:35:21;;;;;;;22.58;11.02;;;;;;;1.22;100.00;102745.56;4981115;28;20129;-78
2023/01/23 00:37:51;;;;;;;20.90;12.40;;;;;;;1.21;100.00;102751.50;4979176;28;20790;-79
2023/01/23 00:40:18;;;;;;;24.75;12.10;;;;;;;1.22;100.00;102747.25;4968499;28;20042;-79
2023/01/23 00:42:44;;;;;;;27.27;11.63;;;;;;;1.17;100.00;102739.19;4983864;28;20046;-78
2023/01/23 00:50:20;;;;;;;;;;;;;;;;;;;;;
2023/01/23 00:52:59;;;;;;;24.90;12.48;;;;;;;1.15;100.00;102739.13;4793788;29;20111;-79
2023/01/23 00:55:29;;;;;;;26.08;14.02;;;;;;;1.15;100.00;102740.81;4844331;29;20060;-80
2023/01/23 00:57:59;;;;;;;24.88;11.65;;;;;;;1.13;100.00;102745.88;4881354;29;20064;-79
2023/01/23 01:00:28;;;;;;;27.00;13.65;;;;;;;1.14;100.00;102749.34;4892403;29;20066;-78
2023/01/23 01:03:09;;;;;;;26.70;12.60;;;;;;;1.13;100.00;102750.13;4906016;29;20047;-79
2023/01/23 01:05:39;;;;;;;20.05;11.02;;;;;;;1.13;100.00;102751.03;4886767;29;20052;-79
2023/01/23 01:08:09;;;;;;;24.70;12.02;;;;;;;1.15;100.00;102752.00;4892130;29;20089;-82
2023/01/23 01:13:39;;;;;;;33.13;12.65;;;;;;;1.16;100.00;102760.63;4936613;28;20062;-79
2023/01/23 01:16:10;;;;;;;27.10;12.68;;;;;;;1.13;100.00;102761.38;4976463;28;20062;-83
2023/01/23 01:18:38;;;;;;;22.85;10.95;;;;;;;1.15;100.00;102769.19;4985100;28;20062;-78
2023/01/23 01:21:19;;;;;;;24.02;11.65;;;;;;;1.16;100.00;102770.94;4975082;28;20055;-82
2023/01/23 01:24:08;;;;;;;30.85;11.43;;;;;;;1.17;100.00;102774.44;4953679;28;20049;-79
2023/01/23 01:26:35;;;;;;;23.58;12.27;;;;;;;1.16;100.00;102768.38;4968172;28;20035;-80
2023/01/23 01:33:51;;;;;;;22.33;10.43;;;;;;;1.18;100.00;102782.28;4934868;28;20074;-79
2023/01/23 01:36:29;;;;;;;25.15;12.45;;;;;;;1.18;100.00;102779.69;4956556;28;20516;-81
2023/01/23 01:38:59;;;;;;;26.77;11.75;;;;;;;1.17;100.00;102780.47;4976176;28;20052;-78
2023/01/23 01:41:42;;;;;;;;;;;;;;;;;;;;;
2023/01/23 01:44:29;;;;;;;30.77;12.38;;;;;;;1.18;100.00;102790.00;4959235;28;20054;-80
2023/01/23 01:47:14;;;;;;;29.33;13.65;;;;;;;1.19;100.00;102788.31;4965512;28;20055;-78
2023/01/23 01:50:12;;;;;;;29.67;13.73;;;;;;;1.18;100.00;102802.91;4947096;28;20189;-79
2023/01/23 01:52:43;;;;;;;27.00;13.57;;;;;;;1.18;100.00;102800.34;4963460;28;20039;-81
2023/01/23 01:55:20;;;;;;;25.58;12.57;;;;;;;1.19;100.00;102796.97;4961825;28;20050;-80
2023/01/23 01:57:53;;;;;;;25.55;11.68;;;;;;;1.20;100.00;102805.59;4981634;28;20051;-79
2023/01/23 02:00:48;;;;;;;25.48;13.05;;;;;;;1.19;100.00;102802.13;4978381;28;20046;-78
2023/01/23 02:03:29;;;;;;;30.00;14.27;;;;;;;1.19;100.00;102806.38;4952624;28;20089;-77
2023/01/23 02:05:59;;;;;;;22.38;12.05;;;;;;;1.19;100.00;102806.38;4976591;28;20054;-78
2023/01/23 02:08:55;;;;;;;28.08;12.82;;;;;;;1.20;100.00;102809.06;4961458;28;20058;-78
2023/01/23 02:11:22;;;;;;;20.20;11.45;;;;;;;1.21;100.00;102797.06;4945965;28;20404;-78
2023/01/23 02:14:01;;;;;;;20.50;9.68;;;;;;;1.20;100.00;102801.34;4936350;28;20068;-78
2023/01/23 02:16:31;;;;;;;28.02;11.80;;;;;;;1.20;100.00;102803.00;4961626;28;20051;-78
2023/01/23 02:19:04;;;;;;;22.15;12.18;;;;;;;1.20;100.00;102814.25;4977319;28;20042;-80
2023/01/23 02:21:30;;;;;;;25.77;11.20;;;;;;;1.21;100.00;102818.56;4971234;28;20062;-79
2023/01/23 02:24:22;;;;;;;24.17;12.30;;;;;;;1.22;100.00;102817.78;4970966;28;20046;-79
2023/01/23 02:26:48;;;;;;;25.02;11.38;;;;;;;1.21;100.00;102823.72;4957580;28;20038;-77
2023/01/23 02:29:18;;;;;;;23.30;11.25;;;;;;;1.20;100.00;102821.06;4964770;28;20053;-78
2023/01/23 02:31:45;;;;;;;22.70;10.63;;;;;;;1.20;100.00;102813.31;4965973;28;20050;-78
2023/01/23 02:34:13;;;;;;;24.83;12.57;;;;;;;1.19;100.00;102822.75;4977130;28;20165;-80
2023/01/23 02:36:44;;;;;;;24.95;12.07;;;;;;;1.20;100.00;102829.72;4947117;28;20047;-77
2023/01/23 02:39:14;;;;;;;22.25;11.13;;;;;;;1.20;100.00;102823.66;4947647;28;20046;-81
2023/01/23 02:41:48;;;;;;;23.27;11.65;;;;;;;1.21;100.00;102828.91;4961849;28;20060;-81
2023/01/23 02:44:25;;;;;;;21.27;11.18;;;;;;;1.22;100.00;102829.81;4974128;28;20377;-80
2023/01/23 02:46:52;;;;;;;27.02;11.82;;;;;;;1.21;100.00;102831.47;4970827;28;20126;-78
2023/01/23 02:49:20;;;;;;;31.70;11.20;;;;;;;1.23;100.00;102829.03;4987458;28;20101;-78
2023/01/23 02:51:47;;;;;;;31.85;12.70;;;;;;;1.22;100.00;102829.81;4944025;28;20049;-79
2023/01/23 02:54:14;;;;;;;26.52;12.55;;;;;;;1.22;100.00;102830.69;4976831;28;20440;-78
2023/01/23 02:56:41;;;;;;;28.63;11.77;;;;;;;1.24;100.00;102835.94;4962702;28;20050;-79
2023/01/23 03:01:53;;;;;;;24.05;12.32;;;;;;;1.25;100.00;102838.66;4966492;28;20183;-78
2023/01/23 03:04:20;;;;;;;29.08;11.68;;;;;;;1.26;100.00;102843.00;4963152;28;20060;-78
2023/01/23 03:06:47;;;;;;;24.70;11.30;;;;;;;1.25;100.00;102837.72;4964490;28;20046;-78
2023/01/23 03:09:17;;;;;;;21.88;11.77;;;;;;;1.25;100.00;102836.06;4949669;28;20074;-78
2023/01/23 03:11:45;;;;;;;22.45;12.02;;;;;;;1.24;100.00;102846.25;4966500;28;20051;-80
2023/01/23 03:14:17;;;;;;;22.48;10.55;;;;;;;1.22;100.00;102835.84;4976202;28;20060;-80
2023/01/23 03:16:48;;;;;;;21.45;11.32;;;;;;;1.21;100.00;102840.91;4974467;28;20452;-79
2023/01/23 03:19:16;;;;;;;24.50;10.95;;;;;;;1.21;100.00;102841.78;4957767;28;20047;-79
2023/01/23 03:21:42;;;;;;;25.65;12.57;;;;;;;1.19;100.00;102843.41;4963476;28;20062;-79
2023/01/23 03:24:12;;;;;;;27.70;11.68;;;;;;;1.16;100.00;102835.44;4962210;28;20043;-80
2023/01/23 03:26:44;;;;;;;34.58;13.20;;;;;;;1.18;100.00;102833.88;4948179;28;20481;-80
2023/01/23 03:32:13;;;;;;;29.20;12.15;;;;;;;1.21;100.00;102840.91;4960817;28;20054;-79
2023/01/23 03:34:40;;;;;;;23.17;12.88;;;;;;;1.20;100.00;102837.47;4961492;28;20079;-79
2023/01/23 03:37:08;;;;;;;32.00;13.10;;;;;;;1.18;100.00;102839.03;4969669;28;20042;-79
2023/01/23 03:42:20;;;;;;;36.30;14.23;;;;;;;1.12;100.00;102836.03;4971484;28;20757;-79
2023/01/23 03:44:46;;;;;;;31.50;15.00;;;;;;;1.12;100.00;102843.78;4964927;28;20437;-79
2023/01/23 03:47:13;;;;;;;34.28;14.15;;;;;;;1.11;100.00;102850.63;4969022;28;20050;-78
2023/01/23 03:49:39;;;;;;;39.70;17.25;;;;;;;1.12;100.00;102848.94;4949347;28;20150;-79
2023/01/23 03:52:06;;;;;;;30.65;14.80;;;;;;;1.12;100.00;102842.13;4964935;28;20046;-79
2023/01/23 03:54:33;;;;;;;31.13;13.13;;;;;;;1.12;100.00;102841.19;4966092;28;20043;-78
2023/01/23 03:56:59;;;;;;;34.70;15.05;;;;;;;1.12;100.00;102844.69;4966574;28;20078;-78
2023/01/23 03:59:26;;;;;;;33.72;14.15;;;;;;;1.11;100.00;102842.91;4974391;28;20125;-81
2023/01/23 04:01:52;;;;;;;32.97;14.40;;;;;;;1.13;100.00;102843.00;4962071;28;20051;-78
2023/01/23 04:04:19;;;;;;;23.75;13.30;;;;;;;1.13;100.00;102850.72;4950488;28;20050;-81
2023/01/23 04:06:45;;;;;;;34.55;14.55;;;;;;;1.12;100.00;102841.19;4969219;28;20093;-82
2023/01/23 04:09:12;;;;;;;34.60;14.35;;;;;;;1.11;100.00;102839.44;4978184;28;20057;-79
2023/01/23 04:11:38;;;;;;;24.77;13.55;;;;;;;1.11;100.00;102839.44;4967549;28;20054;-79
2023/01/23 04:14:05;;;;;;;28.40;14.52;;;;;;;1.10;100.00;102841.13;4952747;28;20043;-78
2023/01/23 04:16:31;;;;;;;23.80;11.27;;;;;;;1.10;100.00;102851.44;4958395;28;20125;-81
2023/01/23 04:18:58;;;;;;;23.20;11.95;;;;;;;1.10;100.00;102838.53;4964570;28;20061;-78
2023/01/23 04:21:24;;;;;;;20.08;11.07;;;;;;;1.09;100.00;102843.59;4964486;28;20051;-79
2023/01/23 04:23:51;;;;;;;26.70;12.02;;;;;;;1.11;100.00;102852.34;4964213;28;20047;-78
2023/01/23 04:26:18;;;;;;;24.58;12.57;;;;;;;1.08;100.00;102847.88;4966461;28;20055;-78
2023/01/23 04:28:44;;;;;;;25.45;11.90;;;;;;;1.08;100.00;102850.47;4968112;28;20066;-78
2023/01/23 04:31:11;;;;;;;25.42;11.70;;;;;;;1.07;100.00;102847.75;4963835;28;20047;-78
2023/01/23 04:33:37;;;;;;;21.10;10.75;;;;;;;1.06;100.00;102852.03;4955847;28;20042;-78
2023/01/23 04:36:06;;;;;;;25.92;13.07;;;;;;;1.06;100.00;102849.44;4947853;28;20062;-78
2023/01/23 04:38:33;;;;;;;21.58;11.30;;;;;;;1.04;100.00;102842.41;4953652;28;20140;-78
2023/01/23 04:41:00;;;;;;;23.25;11.63;;;;;;;1.04;100.00;102842.41;4966522;28;20039;-80
2023/01/23 04:43:27;;;;;;;24.65;12.80;;;;;;;1.04;100.00;102850.13;4978775;28;20051;-82
2023/01/23 04:45:56;;;;;;;22.48;10.40;;;;;;;1.04;100.00;102851.03;4964963;28;20046;-78
2023/01/23 04:48:23;;;;;;;24.27;11.73;;;;;;;1.06;100.00;102846.88;4964962;28;20042;-79
2023/01/23 04:50:51;;;;;;;24.45;11.57;;;;;;;1.07;100.00;102847.75;4969901;28;20513;-82
2023/01/23 04:53:18;;;;;;;26.00;12.57;;;;;;;1.06;100.00;102851.16;4968201;28;20050;-80
2023/01/23 04:55:49;;;;;;;19.25;11.57;;;;;;;1.06;100.00;102846.88;4965259;28;20053;-78
2023/01/23 04:58:18;;;;;;;33.63;14.30;;;;;;;1.06;100.00;102852.03;4978649;28;20169;-78
2023/01/23 05:00:45;;;;;;;27.35;13.15;;;;;;;1.07;100.00;102858.06;4969351;28;20039;-84
2023/01/23 05:03:11;;;;;;;25.13;12.82;;;;;;;1.06;100.00;102859.75;4956172;28;20061;-80
2023/01/23 05:05:38;;;;;;;21.52;11.85;;;;;;;1.04;100.00;102856.19;4953493;28;20043;-78
2023/01/23 05:08:05;;;;;;;25.25;12.13;;;;;;;1.06;100.00;102861.47;4969968;28;20054;-77
2023/01/23 05:10:38;;;;;;;27.27;11.18;;;;;;;1.03;100.00;102861.25;4968559;28;20404;-78
2023/01/23 05:13:05;;;;;;;32.13;14.75;;;;;;;1.03;100.00;102856.09;4968246;28;20043;-79
2023/01/23 05:15:35;;;;;;;23.75;12.98;;;;;;;1.02;100.00;102855.19;4961595;28;20058;-77
2023/01/23 05:18:05;;;;;;;25.80;12.27;;;;;;;1.02;100.00;102865.53;4973364;28;20089;-78
2023/01/23 05:20:57;;;;;;;21.75;11.00;;;;;;;1.02;100.00;102860.38;4966569;28;20043;-78
2023/01/23 05:23:47;;;;;;;26.38;10.70;;;;;;;0.99;100.00;102862.72;4970179;28;20225;-82
2023/01/23 05:34:11;;;;;;;24.52;12.50;;;;;;;0.95;100.00;102865.91;4923420;28;20061;-78
2023/01/23 05:37:01;;;;;;;26.50;11.48;;;;;;;0.95;100.00;102866.81;4970483;28;20535;-78
2023/01/23 05:39:55;;;;;;;25.90;11.65;;;;;;;0.96;100.00;102860.81;4955219;28;20038;-78
2023/01/23 05:45:30;;;;;;;19.15;10.73;;;;;;;1.00;100.00;102877.41;4967127;28;20038;-78
2023/01/23 05:48:26;;;;;;;27.55;12.75;;;;;;;0.98;100.00;102882.47;4953870;28;20102;-80
2023/01/23 05:51:08;;;;;;;20.77;11.02;;;;;;;0.98;100.00;102881.59;4980964;28;20050;-77
2023/01/23 05:53:34;;;;;;;21.52;12.13;;;;;;;0.99;100.00;102884.25;4977011;28;20070;-80
2023/01/23 05:56:07;;;;;;;20.42;10.85;;;;;;;1.02;100.00;102886.16;4953538;28;20039;-79
2023/01/23 05:58:33;;;;;;;22.98;11.70;;;;;;;1.05;100.00;102895.78;4954656;28;20053;-78
2023/01/23 06:01:03;;;;;;;14.98;10.25;;;;;;;1.09;100.00;102905.50;4965149;28;20057;-83
2023/01/23 06:03:29;;;;;;;24.35;11.98;;;;;;;1.08;100.00;102902.03;4965293;28;20058;-79
2023/01/23 06:05:56;;;;;;;24.95;11.98;;;;;;;1.08;100.00;102899.47;4948933;28;20042;-80
2023/01/23 06:08:24;;;;;;;24.65;10.57;;;;;;;1.10;100.00;102907.31;4942730;28;20063;-82
2023/01/23 06:10:51;;;;;;;20.90;10.70;;;;;;;1.09;100.00;102906.38;4982670;28;20038;-78
2023/01/23 06:13:18;;;;;;;21.60;10.57;;;;;;;1.10;100.00;102910.75;4958258;28;20051;-79
2023/01/23 06:15:44;;;;;;;19.17;11.20;;;;;;;1.11;100.00;102909.97;4975425;28;20054;-82
2023/01/23 06:18:11;;;;;;;20.58;11.25;;;;;;;1.09;100.00;102914.13;4997390;28;20066;-82
2023/01/23 06:20:37;;;;;;;23.10;12.18;;;;;;;1.07;100.00;102927.72;4981902;28;20035;-82
2023/01/23 06:23:04;;;;;;;23.88;11.93;;;;;;;1.04;100.00;102930.09;4975691;28;20061;-78
2023/01/23 06:25:31;;;;;;;15.70;9.98;;;;;;;1.02;100.00;102934.25;4967759;28;20102;-77
2023/01/23 06:27:57;;;;;;;19.92;10.15;;;;;;;0.95;100.00;102935.53;4968411;28;20051;-79
2023/01/23 06:30:23;;;;;;;22.02;10.55;;;;;;;0.93;100.00;102929.38;4980993;28;20473;-79
2023/01/23 06:32:50;;;;;;;24.25;9.95;;;;;;;0.93;100.00;102938.00;4964765;28;20045;-78
2023/01/23 06:35:17;;;;;;;20.67;11.57;;;;;;;0.93;100.00;102934.53;4967091;28;20051;-77
2023/01/23 06:37:43;;;;;;;18.48;11.13;;;;;;;0.95;100.00;102935.53;4956393;28;20070;-78
2023/01/23 06:40:12;;;;;;;23.13;11.40;;;;;;;0.96;100.00;102945.06;4970344;28;20043;-80
2023/01/23 06:42:40;;;;;;;21.75;9.68;;;;;;;0.95;100.00;102943.25;4967119;28;20042;-78
2023/01/23 06:45:09;;;;;;;23.35;10.43;;;;;;;0.96;100.00;102945.06;4949032;28;20419;-78
2023/01/23 06:47:35;;;;;;;22.75;10.73;;;;;;;0.93;100.00;102955.19;4971189;28;20049;-79
2023/01/23 06:50:03;;;;;;;26.55;11.75;;;;;;;0.90;100.00;102958.44;4975754;28;20149;-78
2023/01/23 06:52:30;;;;;;;23.90;11.95;;;;;;;0.90;100.00;102968.75;4966415;28;20863;-78
2023/01/23 06:54:56;;;;;;;19.33;11.10;;;;;;;0.90;100.00;102973.00;4973897;28;20129;-78
2023/01/23 06:57:23;;;;;;;24.83;12.77;;;;;;;0.89;100.00;102971.25;4968620;28;20645;-78
2023/01/23 06:59:50;;;;;;;17.60;10.15;;;;;;;0.88;100.00;102983.22;4967582;28;20043;-79
2023/01/23 07:02:16;;;;;;;24.23;11.98;;;;;;;0.85;100.00;102976.94;4967262;28;20057;-79
2023/01/23 07:04:43;;;;;;;17.95;10.32;;;;;;;0.84;100.00;102981.22;4978348;28;20111;-80
2023/01/23 07:07:10;;;;;;;25.90;12.73;;;;;;;0.88;100.00;102982.34;4958783;28;20039;-78
2023/01/23 07:09:38;;;;;;;23.98;11.82;;;;;;;0.89;100.00;102984.13;4961990;28;20053;-78
2023/01/23 07:12:06;;;;;;;22.55;11.10;;;;;;;0.88;100.00;102978.06;4964923;28;20870;-79
2023/01/23 07:14:32;;;;;;;25.52;12.88;;;;;;;0.92;100.00;102981.75;4971474;28;20077;-79
2023/01/23 07:16:59;;;;;;;20.88;11.68;;;;;;;0.93;100.00;102984.44;4966476;28;20109;-79
2023/01/23 07:19:25;;;;;;;28.88;13.38;;;;;;;0.95;100.00;102989.69;4955015;28;20070;-79
2023/01/23 07:21:52;;;;;;;24.45;11.98;;;;;;;0.96;100.00;102996.63;4971800;28;20577;-78
2023/01/23 07:24:19;;;;;;;21.85;10.90;;;;;;;0.92;100.00;102992.06;4968048;28;20113;-79
2023/01/23 07:26:46;;;;;;;23.48;12.48;;;;;;;0.90;100.00;102988.47;4946579;28;20039;-78
2023/01/23 07:29:13;;;;;;;19.90;11.13;;;;;;;0.89;100.00;102994.44;4948206;28;20081;-79
2023/01/23 07:31:40;;;;;;;23.42;11.43;;;;;;;0.87;100.00;103002.06;4961396;28;20046;-79
2023/01/23 07:34:07;;;;;;;30.40;14.68;;;;;;;0.87;100.00;103012.38;4962206;28;20054;-78
2023/01/23 07:36:33;;;;;;;30.00;12.32;;;;;;;0.89;100.00;103007.34;4970960;28;20057;-79
2023/01/23 07:39:01;;;;;;;25.92;11.73;;;;;;;0.91;100.00;103016.97;4953612;28;20054;-78
2023/01/23 07:41:27;;;;;;;21.92;11.82;;;;;;;0.92;100.00;103015.28;4958159;28;20042;-79
2023/01/23 07:43:57;;;;;;;24.15;13.70;;;;;;;0.96;100.00;103014.69;4957724;28;20051;-79
2023/01/23 07:46:25;;;;;;;23.27;12.75;;;;;;;0.96;100.00;103007.84;4942848;28;20061;-79
2023/01/23 07:48:52;;;;;;;34.20;17.48;;;;;;;0.95;100.00;103015.47;4955601;28;20556;-81
2023/01/23 07:51:22;;;;;;;27.52;15.20;;;;;;;0.94;100.00;103021.41;4979299;28;20702;-79
2023/01/23 07:53:48;;;;;;;28.65;13.23;;;;;;;0.92;100.00;103021.31;4951424;28;20046;-77
2023/01/23 07:56:14;;;;;;;26.85;12.38;;;;;;;0.93;100.00;103024.81;4972439;28;20043;-80
2023/01/23 07:58:41;;;;;;;29.58;14.05;;;;;;;0.92;100.00;103026.47;4969714;28;20498;-78
2023/01/23 08:01:12;;;;;;;28.25;11.73;;;;;;;0.89;100.00;103015.06;4965553;28;20057;-78
2023/01/23 08:03:38;;;;;;;28.23;13.35;;;;;;;0.86;100.00;103028.66;4950409;28;20047;-78
2023/01/23 08:06:05;;;;;;;25.67;12.75;;;;;;;0.87;100.00;103025.25;4970938;28;20050;-80
2023/01/23 08:08:32;;;;;;;23.50;13.07;;;;;;;0.85;100.00;103025.94;4969034;28;20043;-77
2023/01/23 08:10:58;;;;;;;29.05;14.00;;;;;;;0.84;100.00;103022.47;4949994;28;20055;-80
2023/01/23 08:13:25;;;;;;;28.23;14.15;;;;;;;0.87;100.00;103033.00;4948874;28;20061;-77
2023/01/23 08:15:53;;;;;;;21.95;12.25;;;;;;;0.86;100.00;103033.81;4980820;28;20065;-77
2023/01/23 08:18:19;;;;;;;27.83;14.55;;;;;;;0.88;100.00;103036.50;4958917;28;20428;-81
2023/01/23 08:20:54;;;;;;;24.67;13.88;;;;;;;0.85;100.00;103033.69;4952012;28;20050;-80
2023/01/23 08:23:20;;;;;;;28.00;14.52;;;;;;;0.85;100.00;103036.25;4976781;28;20070;-79
2023/01/23 08:25:47;;;;;;;25.92;13.95;;;;;;;0.84;100.00;103037.94;4973925;28;20127;-79
2023/01/23 08:28:13;;;;;;;24.20;13.02;;;;;;;0.88;100.00;103041.66;4973015;28;20120;-80
2023/01/23 08:30:40;;;;;;;24.42;12.13;;;;;;;0.89;100.00;103043.44;4968024;28;20497;-78
2023/01/23 08:33:06;;;;;;;24.05;12.43;;;;;;;0.88;100.00;103046.81;4982236;28;20776;-78
2023/01/23 08:35:33;;;;;;;24.75;12.52;;;;;;;0.86;100.00;103048.38;4982739;28;20887;-79
2023/01/23 08:38:01;;;;;;;25.58;12.70;;;;;;;0.88;100.00;103042.53;5009826;28;20491;-79
2023/01/23 08:40:27;;;;;;;21.85;11.63;;;;;;;0.92;100.00;103046.22;4977110;28;20456;-79
2023/01/23 08:42:54;;;;;;;24.80;12.57;;;;;;;0.96;100.00;103043.94;4981017;28;20050;-77
2023/01/23 08:45:21;;;;;;;28.20;14.93;;;;;;;0.96;100.00;103043.06;4970877;28;20116;-78
2023/01/23 08:47:49;;;;;;;24.20;12.95;;;;;;;0.97;100.00;103052.59;4973240;28;20048;-78
2023/01/23 08:50:16;;;;;;;26.85;12.70;;;;;;;0.93;100.00;103045.44;4974513;28;20424;-81
2023/01/23 08:52:43;;;;;;;23.45;13.27;;;;;;;0.91;100.00;103047.91;4957792;28;20043;-78
2023/01/23 08:55:11;;;;;;;23.35;11.18;;;;;;;0.95;100.00;103042.19;4965115;28;20078;-78
2023/01/23 08:57:38;;;;;;;18.83;11.25;;;;;;;1.01;100.00;103045.97;4970503;28;20050;-77
2023/01/23 09:00:05;;;;;;;22.67;10.55;;;;;;;1.06;100.00;103039.44;4961560;28;20077;-78
2023/01/23 09:02:32;;;;;;;25.85;12.98;;;;;;;1.10;100.00;103039.75;4959252;28;20112;-78
2023/01/23 09:04:59;;;;;;;26.20;13.93;;;;;;;1.16;100.00;103041.84;4976232;28;20766;-78
2023/01/23 09:07:25;;;;;;;25.55;11.57;;;;;;;1.21;100.00;103045.63;4998288;28;20050;-77
2023/01/23 09:09:53;;;;;;;25.63;13.55;;;;;;;1.26;100.00;103041.66;4977761;28;20046;-81
2023/01/23 09:12:20;;;;;;;23.55;12.13;;;;;;;1.26;100.00;103046.84;4976312;28;20046;-78
2023/01/23 09:14:48;;;;;;;20.17;10.93;;;;;;;1.26;100.00;103048.53;4966180;28;20046;-78
2023/01/23 09:17:15;;;;;;;22.40;12.55;;;;;;;1.22;100.00;103059.44;4988411;28;20046;-79
2023/01/23 09:19:45;;;;;;;19.45;10.80;;;;;;;1.20;100.00;103058.41;4977153;28;20113;-79
2023/01/23 09:22:13;;;;;;;18.85;10.68;;;;;;;1.17;100.00;103059.09;4948420;28;20059;-79
2023/01/23 09:24:40;;;;;;;21.17;9.98;;;;;;;1.15;100.00;103055.56;4954529;28;20043;-78
2023/01/23 09:27:22;;;;;;;19.20;11.38;;;;;;;1.20;100.00;103069.66;4939505;28;20145;-79
2023/01/23 09:29:51;;;;;;;18.55;11.00;;;;;;;1.23;100.00;103074.13;4959540;28;20043;-78
2023/01/23 09:32:18;;;;;;;19.20;11.82;;;;;;;1.25;100.00;103067.38;4954840;28;20043;-78
2023/01/23 09:40:20;;;;;;;18.17;10.35;;;;;;;1.25;100.00;103085.44;4946956;28;20138;-77
2023/01/23 09:42:47;;;;;;;21.63;11.65;;;;;;;1.26;100.00;103085.53;4949940;28;20427;-78
2023/01/23 09:45:21;;;;;;;19.83;10.90;;;;;;;1.25;100.00;103086.34;4947008;28;20055;-79
2023/01/23 09:48:09;;;;;;;20.95;10.43;;;;;;;1.26;100.00;103101.03;4957625;28;20050;-78
2023/01/23 09:50:54;;;;;;;22.05;11.13;;;;;;;1.24;100.00;103097.47;4952890;29;20035;-78
2023/01/23 09:53:26;;;;;;;19.10;10.32;;;;;;;1.27;100.00;103107.97;4964550;28;20066;-81
2023/01/23 09:56:07;;;;;;;22.15;11.25;;;;;;;1.28;100.00;103101.16;4963735;28;20053;-78
2023/01/23 09:58:58;;;;;;;18.90;10.80;;;;;;;1.30;100.00;103097.88;4934236;28;20454;-78
2023/01/23 10:01:29;;;;;;;16.90;9.98;;;;;;;1.32;100.00;103095.41;4949062;28;20151;-80
2023/01/23 10:03:58;;;;;;;20.63;11.18;;;;;;;1.32;100.00;103098.88;4955942;28;20505;-78
2023/01/23 10:06:30;;;;;;;21.73;11.52;;;;;;;1.34;100.00;103098.97;4954390;28;20059;-77
2023/01/23 10:09:19;;;;;;;21.75;10.95;;;;;;;1.39;100.00;103102.75;4959202;28;20116;-77
2023/01/23 10:12:56;;;;;;;18.90;10.75;;;;;;;1.42;100.00;103107.22;4943796;28;20035;-78
2023/01/23 10:16:05;;;;;;;17.88;11.35;;;;;;;1.51;100.00;103107.84;4946166;28;20063;-78
2023/01/23 10:19:00;;;;;;;19.35;11.50;;;;;;;1.51;100.00;103110.44;4923095;28;20050;-79
2023/01/23 10:21:45;;;;;;;19.20;10.77;;;;;;;1.51;100.00;103109.56;4964066;28;20057;-77
2023/01/23 10:24:41;;;;;;;21.30;10.93;;;;;;;1.55;100.00;103107.31;4994661;28;20050;-80
2023/01/23 10:27:41;;;;;;;24.42;11.65;;;;;;;1.59;100.00;103103.22;4975521;28;20048;-78
2023/01/23 10:30:33;;;;;;;18.35;10.05;;;;;;;1.57;100.00;103110.84;4958852;28;20145;-79
2023/01/23 10:33:11;;;;;;;20.48;10.63;;;;;;;1.56;100.00;103103.91;4963319;28;20480;-77
2023/01/23 10:36:11;;;;;;;24.30;11.52;;;;;;;1.58;100.00;103104.03;4970746;28;20066;-79
2023/01/23 10:38:48;;;;;;;19.05;10.65;;;;;;;1.60;100.00;103108.50;4954891;28;20042;-78
2023/01/23 10:41:18;;;;;;;17.10;10.30;;;;;;;1.62;100.00;103108.59;4968184;28;20049;-80
2023/01/23 10:43:50;;;;;;;18.90;10.40;;;;;;;1.62;100.00;103103.44;4951053;28;20051;-79
2023/01/23 10:46:31;;;;;;;21.20;12.57;;;;;;;1.67;100.00;103111.47;4961868;28;20043;-78
2023/01/23 10:49:01;;;;;;;21.52;12.23;;;;;;;1.69;100.00;103110.78;4962773;28;20061;-79
2023/01/23 10:51:39;;;;;;;20.55;11.60;;;;;;;1.68;100.00;103114.16;4987630;28;20119;-82
2023/01/23 10:54:20;;;;;;;19.63;11.80;;;;;;;1.67;100.00;103116.63;4977642;28;20053;-78
2023/01/23 10:56:57;;;;;;;18.05;11.02;;;;;;;1.67;100.00;103114.06;4968796;28;20050;-78
2023/01/23 10:59:33;;;;;;;22.70;12.07;;;;;;;1.67;100.00;103114.06;4967453;28;20125;-80
2023/01/23 11:02:06;;;;;;;19.90;10.48;;;;;;;1.61;100.00;103115.44;4971124;28;20118;-78
2023/01/23 11:04:36;;;;;;;19.95;11.27;;;;;;;1.60;100.00;103107.59;4989945;28;20089;-78
2023/01/23 11:07:08;;;;;;;20.48;11.18;;;;;;;1.56;100.00;103101.31;4974725;28;20101;-81
2023/01/23 11:10:09;;;;;;;17.55;10.30;;;;;;;1.53;100.00;103098.53;4969516;28;20042;-78
2023/01/23 11:12:52;;;;;;;24.02;11.43;;;;;;;1.47;100.00;103098.13;4986769;28;20078;-78
2023/01/23 11:15:31;;;;;;;18.17;10.02;;;;;;;1.49;100.00;103097.44;4979711;28;20055;-79
2023/01/23 11:18:01;;;;;;;19.50;11.77;;;;;;;1.48;100.00;103097.34;4968618;28;20063;-79
2023/01/23 11:20:41;;;;;;;22.38;12.73;;;;;;;1.51;100.00;103096.66;4971247;28;20604;-78
2023/01/23 11:23:09;;;;;;;24.30;12.75;;;;;;;1.49;100.00;103093.97;4986852;28;20563;-80
2023/01/23 11:25:45;;;;;;;21.27;12.85;;;;;;;1.46;100.00;103086.91;4974456;28;20046;-79
2023/01/23 11:28:46;;;;;;;26.10;11.88;;;;;;;1.49;100.00;103088.81;4966204;28;20055;-80
2023/01/23 11:31:21;;;;;;;24.10;11.85;;;;;;;1.52;100.00;103082.97;4964183;28;20043;-79
2023/01/23 11:34:23;;;;;;;24.55;12.38;;;;;;;1.50;100.00;103077.69;4962927;28;20051;-78
2023/01/23 11:37:19;;;;;;;27.65;13.85;;;;;;;1.47;100.00;103075.81;4979225;28;20162;-79
2023/01/23 11:40:02;;;;;;;28.45;13.27;;;;;;;1.45;100.00;103077.38;4967610;28;20133;-80
2023/01/23 11:42:29;;;;;;;24.37;12.37;;;;;;;1.43;100.00;103072.91;4970747;28;20523;-78
2023/01/23 11:44:59;;;;;;;23.90;12.68;;;;;;;1.42;100.00;103073.69;4956992;28;20047;-80
2023/01/23 11:47:36;;;;;;;23.73;12.38;;;;;;;1.42;100.00;103068.53;4974558;28;20061;-77
2023/01/23 11:50:34;;;;;;;23.73;13.55;;;;;;;1.45;100.00;103069.63;4966897;28;20441;-78
2023/01/23 11:53:34;;;;;;;29.65;13.93;;;;;;;1.50;100.00;103077.69;5001626;28;20050;-77
2023/01/23 11:56:21;;;;;;;22.15;11.55;;;;;;;1.49;100.00;103078.47;4986386;28;20070;-78
2023/01/23 11:59:39;;;;;;;21.58;11.85;;;;;;;1.51;100.00;103086.31;5004980;28;20106;-78
2023/01/23 12:02:50;;;;;;;24.67;13.23;;;;;;;1.53;100.00;103083.06;4947143;28;20120;-81
2023/01/23 12:05:39;;;;;;;23.08;11.27;;;;;;;1.59;100.00;103078.31;4981564;28;20053;-79
2023/01/23 12:08:41;;;;;;;24.90;13.30;;;;;;;1.57;100.00;103074.72;4968566;28;20073;-81
2023/01/23 12:11:15;;;;;;;25.33;11.88;;;;;;;1.55;100.00;103068.56;4989457;28;20049;-79
2023/01/23 12:14:15;;;;;;;24.70;11.20;;;;;;;1.51;100.00;103070.84;4968421;28;20142;-79
2023/01/23 12:17:20;;;;;;;18.52;11.65;;;;;;;1.45;100.00;103071.31;4989980;28;20054;-79
2023/01/23 12:20:20;;;;;;;18.80;9.57;;;;;;;1.46;100.00;103073.09;4991289;28;20042;-79
2023/01/23 12:23:44;;;;;;;18.67;10.98;;;;;;;1.47;100.00;103067.16;4935544;29;20073;-77